Time;durP1;ratioP1;P1;durP2;ratioP2;P2;SDS_P1;SDS_P2;PMS_P1;PMS_P2;Temp;Humidity;BMP_temperature;BMP_pressure;BME280_temperature;BME280_humidity;BME280_pressure;Samples;Min_cycle;Max_cycle;Signal;HPM_P1;HPM_P2
2021/03/02 00:00:16;;;;;;;10.98;5.28;;;;;;;8.01;51.46;98448.63;5030479;28;20458;-76
2021/03/02 00:02:42;;;;;;;10.43;4.80;;;;;;;8.03;51.48;98464.00;5017552;28;20733;-76
2021/03/02 00:05:12;;;;;;;12.45;5.30;;;;;;;8.00;51.82;98454.84;5029325;28;21080;-76
2021/03/02 00:07:39;;;;;;;12.45;6.70;;;;;;;8.00;52.01;98451.41;5025930;28;20036;-76
2021/03/02 00:10:09;;;;;;;12.25;5.55;;;;;;;7.88;52.00;98451.19;5011319;28;20030;-76
2021/03/02 00:12:36;;;;;;;11.93;6.13;;;;;;;7.89;52.59;98445.00;5006769;28;20574;-76
2021/03/02 00:15:04;;;;;;;10.80;4.72;;;;;;;7.90;52.86;98449.22;5030474;28;20067;-76
2021/03/02 00:17:47;;;;;;;12.80;6.30;;;;;;;7.67;52.34;98446.94;5030700;28;20491;-76
2021/03/02 00:20:15;;;;;;;14.02;6.35;;;;;;;7.94;51.78;98447.03;5005228;28;20040;-76
2021/03/02 00:23:06;;;;;;;11.48;5.63;;;;;;;7.85;51.92;98451.59;5030271;28;20029;-77
2021/03/02 00:25:37;;;;;;;12.55;5.95;;;;;;;8.05;51.52;98456.81;5034694;28;20167;-76
2021/03/02 00:28:08;;;;;;;11.80;6.82;;;;;;;7.90;51.61;98459.59;5034853;28;20021;-76
2021/03/02 00:30:35;;;;;;;10.70;5.50;;;;;;;8.05;51.88;98457.63;4993027;28;20021;-76
2021/03/02 00:33:02;;;;;;;9.65;4.93;;;;;;;8.07;51.48;98453.06;5023965;28;20025;-76
2021/03/02 00:35:28;;;;;;;12.60;5.90;;;;;;;8.11;51.88;98457.84;5003859;28;20029;-76
2021/03/02 00:37:54;;;;;;;10.30;5.28;;;;;;;8.12;51.59;98456.84;5025265;28;20032;-76
2021/03/02 00:40:20;;;;;;;12.00;6.35;;;;;;;8.15;51.64;98459.03;5033832;28;20032;-76
2021/03/02 00:42:46;;;;;;;10.40;5.55;;;;;;;8.13;51.36;98450.66;5027721;28;20055;-76
2021/03/02 00:45:13;;;;;;;11.10;5.30;;;;;;;8.16;51.10;98458.84;5034383;28;20049;-76
2021/03/02 00:47:39;;;;;;;10.88;5.32;;;;;;;8.16;51.77;98458.06;5051926;28;20056;-76
2021/03/02 00:50:06;;;;;;;10.43;5.03;;;;;;;8.18;51.33;98458.66;5032503;28;20087;-76
2021/03/02 00:52:33;;;;;;;10.07;5.00;;;;;;;8.19;51.59;98449.88;5015609;28;20032;-76
2021/03/02 00:54:59;;;;;;;12.35;6.45;;;;;;;8.22;51.55;98457.25;5017582;28;20163;-76
2021/03/02 00:57:25;;;;;;;10.05;4.85;;;;;;;8.21;51.37;98445.28;5034232;28;20033;-76
2021/03/02 00:59:51;;;;;;;9.70;5.15;;;;;;;8.28;50.96;98453.06;5015916;28;20029;-76
2021/03/02 01:02:17;;;;;;;11.90;5.40;;;;;;;8.32;50.75;98454.28;5031487;28;20033;-76
2021/03/02 01:04:42;;;;;;;10.40;5.13;;;;;;;8.37;50.49;98455.28;5051121;28;20057;-76
2021/03/02 01:07:08;;;;;;;9.90;4.75;;;;;;;8.32;50.25;98456.88;5027076;28;20048;-76
2021/03/02 01:09:34;;;;;;;9.02;5.05;;;;;;;8.29;50.70;98460.66;5019315;28;20037;-76
2021/03/02 01:12:01;;;;;;;8.98;5.20;;;;;;;8.05;50.06;98454.22;5030907;28;20029;-76
2021/03/02 01:14:28;;;;;;;11.50;4.97;;;;;;;8.07;49.69;98460.00;5043823;28;20037;-76
2021/03/02 01:16:56;;;;;;;8.27;4.28;;;;;;;7.53;51.00;98459.03;5017795;28;20035;-76
2021/03/02 01:19:22;;;;;;;10.15;4.78;;;;;;;7.50;51.71;98452.47;5017655;28;20028;-76
2021/03/02 01:21:49;;;;;;;11.70;5.70;;;;;;;7.62;52.09;98455.28;5034594;28;20069;-76
2021/03/02 01:24:15;;;;;;;8.68;5.30;;;;;;;7.48;52.41;98446.66;5029742;28;20029;-76
2021/03/02 01:26:42;;;;;;;9.35;5.40;;;;;;;7.37;51.79;98449.81;5052067;28;20037;-76
2021/03/02 01:29:08;;;;;;;8.88;4.50;;;;;;;7.22;52.24;98452.50;5040155;28;20034;-76
2021/03/02 01:31:35;;;;;;;10.98;6.20;;;;;;;6.96;52.47;98442.78;5034036;28;20113;-76
2021/03/02 01:34:01;;;;;;;10.45;5.18;;;;;;;6.87;53.32;98449.91;5019957;28;20087;-76
2021/03/02 01:36:28;;;;;;;11.07;5.90;;;;;;;6.84;53.98;98445.09;5029078;28;20345;-76
2021/03/02 01:38:54;;;;;;;9.98;5.70;;;;;;;6.85;54.65;98435.53;5034154;28;20029;-76
2021/03/02 01:41:20;;;;;;;10.43;5.95;;;;;;;6.79;54.50;98444.88;5011885;28;20036;-76
2021/03/02 01:43:45;;;;;;;12.15;6.65;;;;;;;6.76;54.26;98442.66;5026019;28;20060;-76
2021/03/02 01:46:12;;;;;;;13.38;6.68;;;;;;;6.72;54.69;98438.84;5034084;28;20154;-76
2021/03/02 01:48:39;;;;;;;13.13;6.65;;;;;;;6.65;55.13;98437.97;5022995;28;20037;-76
2021/03/02 01:51:07;;;;;;;13.15;6.18;;;;;;;6.57;54.53;98437.13;5033763;28;20048;-76
2021/03/02 01:53:33;;;;;;;12.15;6.38;;;;;;;6.64;54.51;98438.97;5017022;28;20025;-76
2021/03/02 01:56:00;;;;;;;10.80;6.05;;;;;;;6.64;54.52;98439.78;5030115;28;20376;-76
2021/03/02 01:58:26;;;;;;;11.90;6.05;;;;;;;6.65;55.12;98441.38;5026078;28;20175;-76
2021/03/02 02:00:55;;;;;;;13.05;5.47;;;;;;;6.62;55.29;98435.78;5022212;28;20039;-76
2021/03/02 02:03:37;;;;;;;12.32;6.55;;;;;;;6.22;55.51;98425.06;5019534;28;20823;-76
2021/03/02 02:06:14;;;;;;;10.57;5.40;;;;;;;6.27;55.29;98428.72;5009028;28;21549;-76
2021/03/02 02:08:51;;;;;;;13.80;6.30;;;;;;;6.12;55.52;98428.00;5027188;28;20182;-76
2021/03/02 02:11:37;;;;;;;9.20;5.47;;;;;;;6.10;54.81;98437.69;5021815;28;20082;-76
2021/03/02 02:14:10;;;;;;;11.27;5.63;;;;;;;6.13;54.87;98434.75;5044383;28;20546;-76
2021/03/02 02:16:38;;;;;;;11.65;5.63;;;;;;;6.07;55.25;98438.88;5029786;28;20428;-76
2021/03/02 02:19:05;;;;;;;12.75;5.35;;;;;;;6.09;55.70;98436.91;5010831;28;20037;-76
2021/03/02 02:21:44;;;;;;;12.57;5.75;;;;;;;5.72;56.42;98430.91;5000345;28;20041;-76
2021/03/02 02:24:21;;;;;;;11.48;5.25;;;;;;;5.78;56.26;98430.19;5033195;28;20543;-76
2021/03/02 02:26:56;;;;;;;13.52;6.43;;;;;;;5.77;56.60;98426.00;5014043;28;20025;-76
2021/03/02 02:29:26;;;;;;;14.95;5.97;;;;;;;5.89;56.21;98421.16;5038773;28;20162;-76
2021/03/02 02:31:52;;;;;;;11.90;5.68;;;;;;;6.02;56.58;98432.66;5010113;28;20058;-76
2021/03/02 02:34:19;;;;;;;14.15;6.45;;;;;;;5.93;56.52;98430.16;5010682;28;20074;-76
2021/03/02 02:36:48;;;;;;;14.00;6.38;;;;;;;5.94;57.50;98423.19;5050140;28;20036;-76
2021/03/02 02:39:15;;;;;;;14.05;6.60;;;;;;;5.88;57.08;98423.91;5021376;28;20504;-76
2021/03/02 02:41:42;;;;;;;11.20;6.30;;;;;;;5.79;56.81;98421.47;5023701;28;20112;-76
2021/03/02 02:44:10;;;;;;;13.07;6.07;;;;;;;5.73;56.59;98422.19;5015543;28;20025;-76
2021/03/02 02:46:35;;;;;;;12.80;5.63;;;;;;;5.70;56.94;98422.53;5004343;28;20167;-76
2021/03/02 02:49:01;;;;;;;10.13;5.78;;;;;;;5.70;57.58;98421.75;5016418;28;20096;-76
2021/03/02 02:51:28;;;;;;;12.07;5.70;;;;;;;5.70;57.00;98421.75;5026091;28;20491;-76
2021/03/02 02:53:54;;;;;;;12.00;5.40;;;;;;;5.68;57.05;98424.50;5013177;28;20496;-76
2021/03/02 02:56:21;;;;;;;9.93;4.68;;;;;;;5.78;56.26;98419.84;5032912;28;20032;-76
2021/03/02 02:59:01;;;;;;;10.95;5.20;;;;;;;5.52;56.88;98419.53;5032650;28;20032;-76
2021/03/02 03:01:32;;;;;;;13.50;6.35;;;;;;;5.57;56.33;98425.78;5020965;28;20362;-76
2021/03/02 03:03:58;;;;;;;11.32;5.43;;;;;;;5.59;56.20;98412.69;5015536;28;20569;-76
2021/03/02 03:06:25;;;;;;;10.57;5.10;;;;;;;5.38;55.99;98419.41;5025303;28;20032;-76
2021/03/02 03:08:52;;;;;;;10.40;4.47;;;;;;;5.23;56.56;98414.25;5030344;28;20120;-76
2021/03/02 03:11:19;;;;;;;11.02;5.13;;;;;;;5.25;56.63;98408.91;5032031;28;20039;-76
2021/03/02 03:13:45;;;;;;;10.93;4.95;;;;;;;5.26;58.13;98415.69;5014048;28;20029;-76
2021/03/02 03:16:12;;;;;;;11.38;5.38;;;;;;;5.33;58.19;98415.72;5029101;28;20048;-76
2021/03/02 03:18:51;;;;;;;8.52;4.50;;;;;;;5.12;58.03;98414.69;5032214;28;20028;-76
2021/03/02 03:21:18;;;;;;;9.85;4.35;;;;;;;5.39;58.68;98415.81;5029727;28;20030;-76
2021/03/02 03:23:44;;;;;;;9.43;4.60;;;;;;;5.41;58.53;98418.22;5032096;28;20025;-76
2021/03/02 03:26:11;;;;;;;10.27;5.43;;;;;;;5.46;58.11;98412.53;5032282;28;20033;-76
2021/03/02 03:28:39;;;;;;;8.88;4.18;;;;;;;5.46;58.50;98409.94;5025648;28;20543;-76
2021/03/02 03:31:06;;;;;;;11.27;4.53;;;;;;;5.50;58.24;98419.75;5020942;28;20104;-76
2021/03/02 03:33:32;;;;;;;9.73;4.10;;;;;;;5.48;58.30;98415.72;5015410;28;20116;-76
2021/03/02 03:35:58;;;;;;;10.70;5.10;;;;;;;5.50;57.91;98412.00;5028294;28;20044;-76
2021/03/02 03:38:23;;;;;;;9.85;4.95;;;;;;;5.48;58.34;98416.50;5015451;28;20033;-76
2021/03/02 03:40:50;;;;;;;9.85;4.85;;;;;;;5.47;58.64;98414.09;5008998;28;20341;-76
2021/03/02 03:43:16;;;;;;;10.32;5.63;;;;;;;5.53;58.11;98415.97;5015501;28;20063;-76
2021/03/02 03:45:42;;;;;;;8.00;4.53;;;;;;;5.54;58.25;98417.59;5049632;28;20041;-76
2021/03/02 03:48:08;;;;;;;12.00;5.38;;;;;;;5.52;58.13;98416.94;5015333;28;20045;-76
2021/03/02 03:50:34;;;;;;;9.25;4.63;;;;;;;5.49;57.69;98410.38;5009342;28;20032;-76
2021/03/02 03:53:02;;;;;;;10.32;5.15;;;;;;;5.35;58.61;98416.38;5042528;28;20083;-76
2021/03/02 03:55:31;;;;;;;9.98;5.28;;;;;;;5.21;58.79;98423.94;4999036;28;20025;-76
2021/03/02 03:57:57;;;;;;;11.80;5.10;;;;;;;5.34;58.45;98428.47;5018242;28;20844;-76
2021/03/02 04:00:24;;;;;;;11.13;5.43;;;;;;;5.37;57.46;98420.38;5031710;28;20075;-76
2021/03/02 04:02:50;;;;;;;11.02;5.65;;;;;;;5.22;57.63;98420.38;5031630;28;20052;-76
2021/03/02 04:05:18;;;;;;;9.32;5.15;;;;;;;5.05;58.60;98419.78;5031277;28;20049;-76
2021/03/02 04:07:45;;;;;;;11.75;5.30;;;;;;;5.08;58.82;98426.34;5024884;28;20065;-76
2021/03/02 04:10:11;;;;;;;11.55;5.03;;;;;;;5.11;58.89;98425.19;4993180;28;20117;-76
2021/03/02 04:12:45;;;;;;;10.55;5.18;;;;;;;4.97;58.79;98424.19;5029750;28;20100;-76
2021/03/02 04:15:12;;;;;;;10.75;5.30;;;;;;;5.06;59.17;98433.47;5015121;28;20028;-76
2021/03/02 04:17:38;;;;;;;14.30;6.13;;;;;;;5.08;58.39;98421.19;5031648;28;20036;-76
2021/03/02 04:20:05;;;;;;;11.25;5.35;;;;;;;5.01;58.85;98422.88;5031596;28;20098;-76
2021/03/02 04:22:36;;;;;;;10.25;4.90;;;;;;;4.81;58.95;98431.13;5029072;28;20071;-76
2021/03/02 04:25:03;;;;;;;11.25;5.03;;;;;;;4.85;59.82;98423.84;5015000;28;20044;-76
2021/03/02 04:27:29;;;;;;;9.07;4.70;;;;;;;4.94;60.08;98427.94;5014800;28;20055;-76
2021/03/02 04:29:55;;;;;;;9.63;5.38;;;;;;;4.97;59.39;98427.59;5015259;28;20040;-76
2021/03/02 04:32:21;;;;;;;9.77;4.93;;;;;;;4.99;59.53;98430.78;5014489;28;20030;-76
2021/03/02 04:34:47;;;;;;;9.23;5.15;;;;;;;4.96;59.86;98423.41;5048080;28;20360;-76
2021/03/02 04:37:13;;;;;;;9.55;4.50;;;;;;;4.94;59.81;98427.16;5023236;28;20377;-76
2021/03/02 04:39:41;;;;;;;11.35;4.60;;;;;;;4.84;59.59;98435.13;5011641;28;20045;-76
2021/03/02 04:42:07;;;;;;;10.30;4.45;;;;;;;4.82;59.27;98439.69;5023233;28;20701;-76
2021/03/02 04:44:33;;;;;;;10.90;4.88;;;;;;;4.71;58.86;98446.03;5031662;28;20029;-76
2021/03/02 04:46:59;;;;;;;11.57;4.63;;;;;;;4.61;59.44;98436.00;4998328;28;20082;-76
2021/03/02 04:49:27;;;;;;;8.88;4.32;;;;;;;4.59;59.64;98445.69;5031035;28;20045;-76
2021/03/02 04:51:52;;;;;;;9.43;4.20;;;;;;;4.59;60.14;98442.28;5048719;28;20056;-76
2021/03/02 04:54:18;;;;;;;13.23;4.50;;;;;;;4.63;60.08;98446.94;5031355;28;20036;-76
2021/03/02 04:56:44;;;;;;;10.70;5.03;;;;;;;4.65;60.35;98444.97;5048589;28;20041;-76
2021/03/02 04:59:10;;;;;;;8.77;4.53;;;;;;;4.60;60.62;98436.97;5031558;28;20380;-76
2021/03/02 05:01:36;;;;;;;11.35;5.40;;;;;;;4.58;60.29;98441.50;5031213;28;20037;-76
2021/03/02 05:04:02;;;;;;;7.63;3.80;;;;;;;4.55;60.59;98438.47;5030543;28;20449;-76
2021/03/02 05:06:28;;;;;;;11.18;4.93;;;;;;;4.46;60.25;98435.16;5030889;28;20480;-76
2021/03/02 05:08:54;;;;;;;9.30;4.65;;;;;;;4.37;60.38;98438.75;5026415;28;20037;-76
2021/03/02 05:11:20;;;;;;;8.27;4.35;;;;;;;4.36;60.47;98442.31;5033193;28;20391;-76
2021/03/02 05:13:46;;;;;;;8.98;4.70;;;;;;;4.27;60.83;98442.38;5001620;28;20031;-76
2021/03/02 05:16:13;;;;;;;8.75;4.07;;;;;;;4.28;60.85;98441.41;5024873;28;20021;-76
2021/03/02 05:18:42;;;;;;;8.73;4.22;;;;;;;4.15;61.07;98443.75;5032164;28;20033;-76
2021/03/02 05:21:08;;;;;;;9.65;4.43;;;;;;;4.26;60.86;98439.97;5032339;28;20037;-76
2021/03/02 05:23:36;;;;;;;10.85;4.28;;;;;;;4.21;60.94;98447.41;5033548;28;20025;-76
2021/03/02 05:26:02;;;;;;;10.45;4.93;;;;;;;4.24;60.69;98439.34;5017545;28;20035;-76
2021/03/02 05:28:28;;;;;;;8.30;3.63;;;;;;;4.26;60.31;98451.06;5017604;28;20090;-76
2021/03/02 05:30:54;;;;;;;8.88;3.97;;;;;;;4.38;59.82;98453.25;5045619;28;20037;-76
2021/03/02 05:33:20;;;;;;;9.57;4.93;;;;;;;4.31;59.89;98448.00;5034458;28;20495;-76
2021/03/02 05:35:46;;;;;;;9.98;4.97;;;;;;;4.22;60.13;98449.81;5024364;28;20032;-76
2021/03/02 05:38:12;;;;;;;8.13;4.32;;;;;;;4.26;60.51;98451.06;5034024;28;20049;-76
2021/03/02 05:40:40;;;;;;;8.23;3.83;;;;;;;4.10;59.55;98451.19;5021897;28;20041;-76
2021/03/02 05:43:05;;;;;;;9.23;4.43;;;;;;;4.16;59.42;98444.53;5017384;28;20037;-76
2021/03/02 05:45:31;;;;;;;9.55;4.47;;;;;;;4.05;59.25;98456.06;5028710;28;20029;-76
2021/03/02 05:47:58;;;;;;;10.00;4.82;;;;;;;3.86;60.07;98452.94;5029307;28;20052;-76
2021/03/02 05:50:25;;;;;;;11.57;4.90;;;;;;;3.89;60.79;98455.19;5033630;28;20025;-76
2021/03/02 05:52:51;;;;;;;9.65;5.00;;;;;;;3.89;62.24;98454.34;5046467;28;20061;-76
2021/03/02 05:55:17;;;;;;;7.95;4.22;;;;;;;3.87;61.54;98459.72;5033903;28;20451;-76
2021/03/02 05:57:43;;;;;;;11.02;5.10;;;;;;;3.89;61.62;98460.34;5033640;28;20121;-76
2021/03/02 06:00:10;;;;;;;9.68;4.70;;;;;;;3.87;61.54;98461.47;5033290;28;20472;-76
2021/03/02 06:02:36;;;;;;;9.98;4.60;;;;;;;3.85;61.60;98459.06;5036609;28;20045;-76
2021/03/02 06:05:02;;;;;;;9.85;4.43;;;;;;;3.77;61.69;98464.25;5006860;28;20045;-76
2021/03/02 06:07:27;;;;;;;11.05;4.43;;;;;;;3.75;62.01;98463.59;5009147;28;20041;-76
2021/03/02 06:09:53;;;;;;;9.88;4.72;;;;;;;3.77;62.67;98471.16;5013322;28;20472;-76
2021/03/02 06:12:19;;;;;;;8.77;4.57;;;;;;;3.81;62.83;98469.88;5026495;28;20068;-76
2021/03/02 06:14:45;;;;;;;9.13;4.68;;;;;;;3.86;62.66;98476.13;5050534;28;20425;-76
2021/03/02 06:17:11;;;;;;;8.18;3.95;;;;;;;3.96;61.92;98475.94;5016752;28;20124;-76
2021/03/02 06:19:47;;;;;;;8.52;4.00;;;;;;;3.82;61.76;98471.47;5015849;28;20115;-75
2021/03/02 06:22:33;;;;;;;10.32;4.55;;;;;;;3.62;62.53;98477.03;5031117;28;20079;-76
2021/03/02 06:25:02;;;;;;;9.82;4.32;;;;;;;3.95;62.16;98474.31;5032714;28;20039;-76
2021/03/02 06:27:30;;;;;;;9.95;4.60;;;;;;;3.96;61.85;98475.09;5027036;28;20040;-76
2021/03/02 06:30:06;;;;;;;9.25;4.55;;;;;;;3.82;61.51;98481.78;5027137;28;20377;-76
2021/03/02 06:32:43;;;;;;;10.00;4.50;;;;;;;3.81;61.28;98488.72;5028374;28;20037;-77
2021/03/02 06:35:10;;;;;;;10.25;4.95;;;;;;;4.05;61.20;98487.00;5031925;28;20103;-76
2021/03/02 06:37:44;;;;;;;9.10;4.60;;;;;;;3.82;61.33;98485.19;5030126;28;20027;-76
2021/03/02 06:40:13;;;;;;;9.40;4.10;;;;;;;3.97;62.07;98481.88;5030240;28;20044;-76
2021/03/02 06:42:45;;;;;;;12.55;5.85;;;;;;;3.79;62.49;98477.78;5031313;28;20082;-76
2021/03/02 06:45:15;;;;;;;10.98;5.20;;;;;;;3.93;61.82;98489.13;5031760;28;20033;-76
2021/03/02 06:47:42;;;;;;;12.93;6.60;;;;;;;4.03;61.96;98489.72;5028642;28;20571;-76
2021/03/02 06:50:12;;;;;;;10.38;5.78;;;;;;;4.03;61.55;98494.09;5046170;28;20537;-77
2021/03/02 06:52:42;;;;;;;11.55;6.93;;;;;;;4.03;61.03;98494.88;5049165;28;20044;-76
2021/03/02 06:55:19;;;;;;;16.35;7.75;;;;;;;3.98;62.03;98504.91;5015294;28;20036;-76
2021/03/02 06:57:49;;;;;;;15.25;7.43;;;;;;;4.18;60.80;98502.72;5030948;28;20079;-77
2021/03/02 07:00:18;;;;;;;13.85;7.57;;;;;;;4.44;60.93;98514.47;5009782;28;20025;-77
2021/03/02 07:02:45;;;;;;;13.07;7.28;;;;;;;4.48;61.08;98502.81;5047430;28;20033;-76
2021/03/02 07:05:12;;;;;;;12.88;7.22;;;;;;;4.50;61.22;98513.78;5014173;28;20132;-76
2021/03/02 07:07:40;;;;;;;12.57;7.80;;;;;;;4.54;61.18;98512.47;5018089;28;20221;-76
2021/03/02 07:10:06;;;;;;;12.48;7.07;;;;;;;4.74;60.97;98522.31;4993337;28;20350;-77
2021/03/02 07:12:34;;;;;;;12.32;7.18;;;;;;;4.98;59.94;98510.97;5029482;28;20033;-76
2021/03/02 07:15:02;;;;;;;11.32;6.95;;;;;;;5.04;60.48;98520.63;5011163;28;20108;-77
2021/03/02 07:17:27;;;;;;;12.18;6.50;;;;;;;5.28;59.94;98509.25;5038744;28;20036;-77
2021/03/02 07:19:56;;;;;;;11.60;6.28;;;;;;;5.34;59.14;98516.28;5024435;28;20021;-77
2021/03/02 07:22:25;;;;;;;10.75;5.30;;;;;;;5.41;60.02;98522.31;5024370;28;20413;-77
2021/03/02 07:24:52;;;;;;;11.20;5.15;;;;;;;5.55;59.33;98520.75;5029587;28;20112;-77
2021/03/02 07:27:19;;;;;;;10.23;5.03;;;;;;;5.67;59.92;98526.25;4999070;28;20065;-76
2021/03/02 07:29:44;;;;;;;10.77;5.63;;;;;;;5.89;59.00;98528.91;5006567;28;20034;-77
2021/03/02 07:32:11;;;;;;;11.32;5.63;;;;;;;5.98;58.24;98523.50;5023600;28;20024;-77
2021/03/02 07:34:37;;;;;;;8.98;6.15;;;;;;;6.08;58.85;98530.97;5030180;28;20440;-76
2021/03/02 07:37:03;;;;;;;11.75;5.47;;;;;;;6.06;59.18;98534.72;5024432;28;20435;-76
2021/03/02 07:39:29;;;;;;;10.00;5.25;;;;;;;6.10;58.36;98541.13;5007409;28;20354;-76
2021/03/02 07:41:58;;;;;;;9.52;4.78;;;;;;;6.29;58.53;98544.91;5047033;28;20102;-76
2021/03/02 07:44:25;;;;;;;9.77;5.00;;;;;;;6.45;57.73;98534.34;5031047;28;20372;-76
2021/03/02 07:46:53;;;;;;;7.95;4.57;;;;;;;6.72;57.18;98544.97;5030192;28;20029;-76
2021/03/02 07:49:24;;;;;;;10.85;5.50;;;;;;;6.91;56.92;98544.31;5001973;28;20033;-77
2021/03/02 07:51:57;;;;;;;9.55;4.05;;;;;;;6.68;56.94;98539.38;5047933;28;20028;-76
2021/03/02 07:54:23;;;;;;;10.77;5.18;;;;;;;7.00;56.52;98539.81;5048057;28;20411;-76
2021/03/02 07:57:15;;;;;;;10.55;5.18;;;;;;;7.03;56.01;98542.03;5019303;28;20083;-76
2021/03/02 07:59:45;;;;;;;9.88;4.88;;;;;;;7.21;55.38;98544.16;4986095;28;20096;-76
2021/03/02 08:02:17;;;;;;;9.73;5.13;;;;;;;7.46;54.70;98551.50;5035353;28;20083;-76
2021/03/02 08:04:45;;;;;;;8.93;5.03;;;;;;;7.95;54.30;98553.16;5027193;28;20071;-76
2021/03/02 08:07:18;;;;;;;9.88;5.57;;;;;;;8.15;53.30;98552.44;5020011;28;20033;-77
2021/03/02 08:09:45;;;;;;;8.85;4.63;;;;;;;8.51;53.05;98546.19;5021379;28;20111;-76
2021/03/02 08:12:26;;;;;;;8.40;5.40;;;;;;;8.22;53.32;98541.06;5015314;28;20064;-76
2021/03/02 08:14:51;;;;;;;10.82;4.82;;;;;;;8.68;52.10;98544.00;5045856;28;20037;-76
2021/03/02 08:17:21;;;;;;;9.63;4.80;;;;;;;8.89;51.88;98545.63;5008753;28;20519;-77
2021/03/02 08:19:48;;;;;;;9.07;4.57;;;;;;;9.33;51.38;98546.81;5011535;28;20391;-77
2021/03/02 08:22:21;;;;;;;11.38;5.72;;;;;;;9.21;51.08;98541.44;5021489;28;20032;-77
2021/03/02 08:25:03;;;;;;;7.75;4.32;;;;;;;9.65;49.80;98550.34;5042298;28;20669;-77
2021/03/02 08:27:52;;;;;;;12.40;5.93;;;;;;;9.80;49.60;98551.91;5046301;28;20392;-77
2021/03/02 08:30:31;;;;;;;9.57;4.85;;;;;;;9.99;49.25;98550.25;5013259;28;20032;-77
2021/03/02 08:33:04;;;;;;;8.77;4.43;;;;;;;9.96;48.81;98558.47;5028261;28;20079;-77
2021/03/02 08:35:40;;;;;;;8.02;5.10;;;;;;;10.05;48.45;98563.22;5027056;28;20475;-77
2021/03/02 08:38:12;;;;;;;9.63;5.00;;;;;;;10.30;47.99;98562.53;5011790;28;20025;-77
2021/03/02 08:40:37;;;;;;;9.98;5.93;;;;;;;10.54;48.00;98568.03;5024628;28;20487;-77
2021/03/02 08:43:18;;;;;;;10.77;5.10;;;;;;;10.29;47.94;98566.13;5043106;28;20039;-77
2021/03/02 08:45:55;;;;;;;8.63;4.72;;;;;;;10.29;48.01;98566.13;5009319;28;20113;-77
2021/03/02 08:48:28;;;;;;;10.32;4.93;;;;;;;10.73;47.38;98567.13;5026324;28;20029;-77
2021/03/02 08:50:56;;;;;;;10.07;5.45;;;;;;;10.96;46.86;98570.97;5023969;28;20029;-77
2021/03/02 08:53:49;;;;;;;9.90;5.25;;;;;;;10.58;46.97;98570.00;5025137;28;20032;-77
2021/03/02 08:56:23;;;;;;;8.73;5.18;;;;;;;10.98;46.43;98580.16;5003487;28;20044;-77
2021/03/02 08:59:10;;;;;;;8.98;5.05;;;;;;;10.97;46.60;98580.41;5025193;28;20148;-77
2021/03/02 09:01:38;;;;;;;9.73;5.27;;;;;;;11.41;45.37;98573.41;5015741;28;20568;-77
2021/03/02 09:04:15;;;;;;;7.68;5.35;;;;;;;11.34;46.00;98573.44;5022953;28;20114;-77
2021/03/02 09:06:42;;;;;;;7.97;4.72;;;;;;;11.67;45.04;98581.97;5022800;28;20029;-77
2021/03/02 09:09:13;;;;;;;9.85;5.45;;;;;;;11.94;44.83;98580.75;5014087;28;20041;-77
2021/03/02 09:11:46;;;;;;;9.38;5.35;;;;;;;11.74;44.52;98590.56;5026235;28;20117;-77
2021/03/02 09:14:17;;;;;;;8.82;4.72;;;;;;;12.24;43.93;98584.41;5025973;28;20021;-77
2021/03/02 09:16:50;;;;;;;9.48;5.30;;;;;;;12.10;43.84;98596.81;5007323;28;20136;-77
2021/03/02 09:19:24;;;;;;;8.90;5.28;;;;;;;12.07;43.92;98598.06;5033505;28;20032;-77
2021/03/02 09:21:53;;;;;;;9.07;5.03;;;;;;;12.44;43.32;98594.59;5014546;28;20060;-77
2021/03/02 09:24:22;;;;;;;9.77;5.78;;;;;;;12.64;43.17;98595.13;5030671;28;20296;-77
2021/03/02 09:27:21;;;;;;;9.95;6.00;;;;;;;12.17;43.79;98589.72;5023549;28;20064;-77
2021/03/02 09:29:47;;;;;;;8.50;5.13;;;;;;;12.81;43.16;98597.09;4965122;28;20072;-77
2021/03/02 09:32:25;;;;;;;8.68;5.55;;;;;;;12.70;43.18;98593.44;5009101;28;20029;-77
2021/03/02 09:34:57;;;;;;;8.55;5.13;;;;;;;12.92;42.75;98593.75;5031051;28;20041;-77
2021/03/02 09:37:23;;;;;;;7.43;5.43;;;;;;;13.56;42.13;98598.38;5007884;28;20080;-77
2021/03/02 09:39:58;;;;;;;8.85;5.43;;;;;;;13.33;41.99;98588.69;5015630;28;20052;-77
2021/03/02 09:42:26;;;;;;;9.55;5.47;;;;;;;13.46;41.90;98598.94;5025502;28;20331;-77
2021/03/02 09:44:56;;;;;;;9.85;6.07;;;;;;;13.73;41.09;98594.03;5027293;28;20033;-77
2021/03/02 09:47:27;;;;;;;10.10;5.47;;;;;;;13.53;41.68;98594.38;5048359;28;20543;-77
2021/03/02 09:50:03;;;;;;;8.38;5.47;;;;;;;13.38;41.92;98580.94;5021839;28;20037;-77
2021/03/02 09:52:42;;;;;;;8.93;5.10;;;;;;;13.16;42.50;98586.72;5030094;28;20029;-77
2021/03/02 09:55:24;;;;;;;7.38;5.00;;;;;;;13.94;41.58;98592.63;5031315;28;20037;-77
2021/03/02 09:58:07;;;;;;;8.05;4.55;;;;;;;14.03;41.15;98588.63;5013372;28;20430;-77
2021/03/02 10:00:38;;;;;;;7.97;4.30;;;;;;;14.50;39.76;98592.13;5001249;28;20036;-77
2021/03/02 10:03:12;;;;;;;9.07;4.68;;;;;;;14.29;40.28;98589.13;5012144;28;20030;-77
2021/03/02 10:05:58;;;;;;;8.15;4.78;;;;;;;14.34;40.34;98593.66;5026270;28;20488;-77
2021/03/02 10:08:34;;;;;;;;;;;;;;;14.43;40.83;98594.88;5017121;28;20029;-77
2021/03/02 10:11:02;;;;;;;;;;;;;;;14.55;39.38;98600.09;5029269;28;19917;-77
2021/03/02 10:13:32;;;;;;;7.38;4.72;;;;;;;15.13;38.89;98599.00;5007498;28;19944;-77
2021/03/02 10:16:28;;;;;;;12.10;5.10;;;;;;;15.22;38.46;98593.34;5025840;28;20060;-77
2021/03/02 10:18:56;;;;;;;8.15;4.20;;;;;;;15.49;38.34;98596.91;5044086;28;20104;-77
2021/03/02 10:21:23;;;;;;;7.80;4.80;;;;;;;15.74;37.51;98595.66;5023100;28;20052;-77
2021/03/02 10:23:52;;;;;;;9.27;4.93;;;;;;;15.74;37.65;98595.66;5039031;28;20033;-78
2021/03/02 10:26:37;;;;;;;7.97;4.90;;;;;;;16.05;36.40;98598.69;5026602;28;20487;-77
2021/03/02 10:29:08;;;;;;;8.27;4.82;;;;;;;16.44;36.30;98595.97;5023248;28;20428;-78
2021/03/02 10:31:35;;;;;;;8.75;4.55;;;;;;;16.62;36.10;98593.00;5020616;28;20426;-78
2021/03/02 10:34:02;;;;;;;8.07;5.35;;;;;;;16.65;35.76;98595.13;5017755;28;20021;-78
2021/03/02 10:36:32;;;;;;;7.13;4.88;;;;;;;16.88;35.42;98598.53;5030878;28;20064;-77
2021/03/02 10:38:59;;;;;;;7.15;5.10;;;;;;;17.27;36.06;98590.41;5012332;28;20044;-77
2021/03/02 10:41:26;;;;;;;10.63;5.95;;;;;;;17.33;34.94;98594.66;5022300;28;20034;-77
2021/03/02 10:43:53;;;;;;;8.20;4.93;;;;;;;17.11;34.78;98596.63;5026530;28;20029;-77
2021/03/02 10:46:24;;;;;;;8.80;5.35;;;;;;;17.36;34.74;98591.53;5026132;28;20037;-78
2021/03/02 10:48:50;;;;;;;7.28;5.18;;;;;;;17.44;34.94;98595.50;5003436;28;20037;-78
2021/03/02 10:51:16;;;;;;;6.75;4.72;;;;;;;17.40;34.37;98597.06;5004389;28;20051;-78
2021/03/02 10:53:43;;;;;;;7.88;5.13;;;;;;;17.69;34.57;98602.00;5006412;28;20036;-78
2021/03/02 10:56:09;;;;;;;7.88;5.18;;;;;;;17.80;34.41;98598.34;5032563;28;20060;-77
2021/03/02 10:58:35;;;;;;;8.68;4.93;;;;;;;17.79;34.01;98597.56;5021624;28;20068;-77
2021/03/02 11:01:02;;;;;;;10.55;5.57;;;;;;;17.84;34.26;98591.53;5023692;28;20463;-78
2021/03/02 11:03:29;;;;;;;7.88;5.05;;;;;;;18.13;32.92;98591.94;5035331;28;20720;-77
2021/03/02 11:05:54;;;;;;;8.25;5.60;;;;;;;18.05;33.36;98596.91;5037818;28;20034;-77
2021/03/02 11:08:24;;;;;;;7.65;5.13;;;;;;;18.19;32.83;98595.38;5026583;28;20041;-77
2021/03/02 11:10:50;;;;;;;7.82;5.35;;;;;;;18.62;31.99;98598.66;5026223;28;20032;-77
2021/03/02 11:13:17;;;;;;;8.70;5.30;;;;;;;18.74;32.78;98593.13;5029052;28;20021;-77
2021/03/02 11:15:43;;;;;;;7.80;5.30;;;;;;;18.62;32.20;98592.59;5029747;28;20424;-77
2021/03/02 11:18:09;;;;;;;10.15;5.18;;;;;;;19.01;32.03;98592.13;5022833;28;20279;-77
2021/03/02 11:20:36;;;;;;;7.97;4.90;;;;;;;19.38;30.88;98591.84;5024457;28;20044;-77
2021/03/02 11:23:02;;;;;;;7.65;4.93;;;;;;;20.32;29.96;98588.63;4997668;28;20903;-77
2021/03/02 11:25:28;;;;;;;8.82;5.72;;;;;;;20.38;29.50;98594.66;5031046;28;20044;-77
2021/03/02 11:27:54;;;;;;;8.80;5.30;;;;;;;20.43;28.51;98594.63;5026744;28;20032;-77
2021/03/02 11:30:20;;;;;;;9.20;5.75;;;;;;;20.63;29.16;98591.13;5043348;28;20104;-77
2021/03/02 11:32:46;;;;;;;8.32;5.28;;;;;;;21.18;27.56;98598.06;5026358;28;20080;-77
2021/03/02 11:35:13;;;;;;;8.93;6.00;;;;;;;21.21;27.25;98585.06;5033026;28;20557;-77
2021/03/02 11:37:40;;;;;;;7.53;4.70;;;;;;;21.40;27.88;98573.75;5025168;28;20132;-77
2021/03/02 11:40:10;;;;;;;7.85;5.70;;;;;;;21.88;27.07;98577.25;5008996;28;20033;-77
2021/03/02 11:42:39;;;;;;;6.85;4.88;;;;;;;21.74;27.26;98571.03;5014368;28;20066;-77
2021/03/02 11:45:06;;;;;;;9.65;5.20;;;;;;;21.48;26.24;98573.97;5011297;28;20033;-77